Attawapiskat Airport
CYAT : rendu visible

Aérodrome :











RETROUVEZ-NOUS SUR...

 
LOGIN :

S'inscrire | Disclaimer

   EN    FR    IT 

 









Légende :    VFR   VFR Marginal   IFR   IFR Intensif   IFR Très Intensif
Visi : 
Plafond : 
>= 8 km
>= 3000ft
5 à 8 km
1000 à 3000 ft
1500m à 5 km
500 à 1000 ft
800 à 1500m
200 à 500 ft
< 800m
< 200 ft
Symboles :   Orages  Brouillard  Fortes neiges  Fortes précipitations  Vent > 20 kt






- Altitude de l'aérodrome : 31 ft
- Code IATA : YAT


CYAT - Attawapiskat

DERNIER METAR :
  • 100700Z AUTO 31010KT 9SM OVC070 M26/M30 A2976 RMK SLP079

METARs EXPIRÉS :
  • 100600Z AUTO 31009KT 9SM FEW050 OVC075 M25/M29 A2976 RMK SLP079
  • 100550Z AUTO 32007KT 9SM FEW050 OVC075 M25/M29 A2976 RMK SLP080
  • 100507Z AUTO 33007KT 9SM -SN BKN060 OVC077 M24/M28 A2976 RMK SLP082

Prévision TAF périmée.



MET'MAP, la Météo Aéronautique d'un coup d'oeil ! - Copyright ORBIFLY Décembre 2007 - Disclaimer

ORBIFLY MET'MAP TEAM :

Programmation & Développement : Alexandra Zaïnal
Sur une idée originale de : Baudouin d'Aumeries
Assistance à la programmation : Marc-Olivier Méhu
Soutien technique & logistique : Manuel Goepfert

Contact : metmap@orbifly.com




SOURCES & CREDITS :

   NOAA       Earth
Advisory